sensor_id;sensor_type;location;lat;lon;timestamp;P1;durP1;ratioP1;P2;durP2;ratioP2
13222;SDS011;6676;45.192;5.722;2023-05-10T00:00:54;1.40;;;0.40;;
13222;SDS011;6676;45.192;5.722;2023-05-10T00:03:45;0.40;;;0.20;;
13222;SDS011;6676;45.192;5.722;2023-05-10T00:06:37;1.27;;;0.60;;
13222;SDS011;6676;45.192;5.722;2023-05-10T00:09:29;1.10;;;0.50;;
13222;SDS011;6676;45.192;5.722;2023-05-10T00:12:20;1.10;;;0.50;;
13222;SDS011;6676;45.192;5.722;2023-05-10T00:15:12;2.08;;;0.40;;
13222;SDS011;6676;45.192;5.722;2023-05-10T00:18:04;0.78;;;0.40;;
13222;SDS011;6676;45.192;5.722;2023-05-10T00:20:55;0.55;;;0.45;;
13222;SDS011;6676;45.192;5.722;2023-05-10T00:23:47;1.02;;;0.40;;
13222;SDS011;6676;45.192;5.722;2023-05-10T00:26:38;2.25;;;0.50;;
13222;SDS011;6676;45.192;5.722;2023-05-10T00:29:33;1.42;;;0.50;;
13222;SDS011;6676;45.192;5.722;2023-05-10T00:32:24;1.07;;;0.47;;
13222;SDS011;6676;45.192;5.722;2023-05-10T00:35:16;0.65;;;0.40;;
13222;SDS011;6676;45.192;5.722;2023-05-10T00:38:08;1.55;;;0.40;;
13222;SDS011;6676;45.192;5.722;2023-05-10T00:40:59;0.68;;;0.50;;
13222;SDS011;6676;45.192;5.722;2023-05-10T00:43:51;0.40;;;0.40;;
13222;SDS011;6676;45.192;5.722;2023-05-10T00:46:43;2.25;;;0.40;;
13222;SDS011;6676;45.192;5.722;2023-05-10T00:49:35;1.57;;;0.40;;
13222;SDS011;6676;45.192;5.722;2023-05-10T00:52:27;2.02;;;0.88;;
13222;SDS011;6676;45.192;5.722;2023-05-10T00:55:19;2.45;;;0.68;;
13222;SDS011;6676;45.192;5.722;2023-05-10T00:58:11;1.32;;;0.53;;
13222;SDS011;6676;45.192;5.722;2023-05-10T01:00:52;1.02;;;0.40;;
13222;SDS011;6676;45.192;5.722;2023-05-10T01:03:44;1.40;;;0.37;;
13222;SDS011;6676;45.192;5.722;2023-05-10T01:06:36;2.85;;;0.50;;
13222;SDS011;6676;45.192;5.722;2023-05-10T01:09:27;1.02;;;0.40;;
13222;SDS011;6676;45.192;5.722;2023-05-10T01:12:19;2.17;;;0.40;;
13222;SDS011;6676;45.192;5.722;2023-05-10T01:15:11;1.17;;;0.47;;
13222;SDS011;6676;45.192;5.722;2023-05-10T01:18:05;2.60;;;0.33;;
13222;SDS011;6676;45.192;5.722;2023-05-10T01:21:01;0.82;;;0.40;;
13222;SDS011;6676;45.192;5.722;2023-05-10T01:24:05;1.70;;;0.80;;
13222;SDS011;6676;45.192;5.722;2023-05-10T01:27:27;4.50;;;1.50;;
13222;SDS011;6676;45.192;5.722;2023-05-10T01:33:47;2.35;;;0.50;;
13222;SDS011;6676;45.192;5.722;2023-05-10T01:36:43;0.88;;;0.40;;
13222;SDS011;6676;45.192;5.722;2023-05-10T01:39:39;2.27;;;0.50;;
13222;SDS011;6676;45.192;5.722;2023-05-10T01:42:38;0.40;;;0.40;;
13222;SDS011;6676;45.192;5.722;2023-05-10T01:45:28;4.17;;;0.35;;
13222;SDS011;6676;45.192;5.722;2023-05-10T01:48:23;2.65;;;0.50;;
13222;SDS011;6676;45.192;5.722;2023-05-10T01:51:19;1.62;;;0.50;;
13222;SDS011;6676;45.192;5.722;2023-05-10T01:54:12;5.33;;;0.70;;
13222;SDS011;6676;45.192;5.722;2023-05-10T01:57:06;1.30;;;0.50;;
13222;SDS011;6676;45.192;5.722;2023-05-10T02:00:02;2.40;;;0.42;;
13222;SDS011;6676;45.192;5.722;2023-05-10T02:03:01;2.45;;;0.53;;
13222;SDS011;6676;45.192;5.722;2023-05-10T02:05:59;2.10;;;0.40;;
13222;SDS011;6676;45.192;5.722;2023-05-10T02:08:51;3.45;;;0.55;;
13222;SDS011;6676;45.192;5.722;2023-05-10T02:11:45;2.25;;;0.50;;
13222;SDS011;6676;45.192;5.722;2023-05-10T02:14:38;2.50;;;0.50;;
13222;SDS011;6676;45.192;5.722;2023-05-10T02:17:31;0.85;;;0.40;;
13222;SDS011;6676;45.192;5.722;2023-05-10T02:20:26;1.85;;;0.50;;
13222;SDS011;6676;45.192;5.722;2023-05-10T02:23:18;1.57;;;0.40;;
13222;SDS011;6676;45.192;5.722;2023-05-10T02:26:11;1.92;;;0.55;;
13222;SDS011;6676;45.192;5.722;2023-05-10T02:29:04;1.62;;;0.70;;
13222;SDS011;6676;45.192;5.722;2023-05-10T02:31:56;0.40;;;0.20;;
13222;SDS011;6676;45.192;5.722;2023-05-10T02:34:50;0.35;;;0.30;;
13222;SDS011;6676;45.192;5.722;2023-05-10T02:37:43;0.37;;;0.37;;
13222;SDS011;6676;45.192;5.722;2023-05-10T02:40:36;0.90;;;0.40;;
13222;SDS011;6676;45.192;5.722;2023-05-10T02:43:29;3.10;;;0.40;;
13222;SDS011;6676;45.192;5.722;2023-05-10T02:46:21;0.80;;;0.30;;
13222;SDS011;6676;45.192;5.722;2023-05-10T02:49:13;1.85;;;0.30;;
13222;SDS011;6676;45.192;5.722;2023-05-10T02:52:05;0.62;;;0.30;;
13222;SDS011;6676;45.192;5.722;2023-05-10T02:55:00;0.93;;;0.33;;
13222;SDS011;6676;45.192;5.722;2023-05-10T02:57:54;0.33;;;0.20;;
13222;SDS011;6676;45.192;5.722;2023-05-10T03:00:47;0.20;;;0.20;;
13222;SDS011;6676;45.192;5.722;2023-05-10T03:03:39;0.72;;;0.10;;
13222;SDS011;6676;45.192;5.722;2023-05-10T03:06:32;2.40;;;0.30;;
13222;SDS011;6676;45.192;5.722;2023-05-10T03:09:24;0.53;;;0.23;;
13222;SDS011;6676;45.192;5.722;2023-05-10T03:12:18;0.30;;;0.10;;
13222;SDS011;6676;45.192;5.722;2023-05-10T03:15:17;0.50;;;0.20;;
13222;SDS011;6676;45.192;5.722;2023-05-10T03:18:10;1.02;;;0.30;;
13222;SDS011;6676;45.192;5.722;2023-05-10T03:21:04;1.65;;;0.30;;
13222;SDS011;6676;45.192;5.722;2023-05-10T03:24:04;0.90;;;0.28;;
13222;SDS011;6676;45.192;5.722;2023-05-10T03:26:57;0.25;;;0.20;;
13222;SDS011;6676;45.192;5.722;2023-05-10T03:32:32;1.40;;;0.20;;
13222;SDS011;6676;45.192;5.722;2023-05-10T03:35:24;2.10;;;0.20;;
13222;SDS011;6676;45.192;5.722;2023-05-10T03:38:15;1.17;;;0.30;;
13222;SDS011;6676;45.192;5.722;2023-05-10T03:41:06;0.85;;;0.23;;
13222;SDS011;6676;45.192;5.722;2023-05-10T03:44:00;1.12;;;0.30;;
13222;SDS011;6676;45.192;5.722;2023-05-10T03:49:31;0.85;;;0.50;;
13222;SDS011;6676;45.192;5.722;2023-05-10T03:52:23;1.10;;;0.30;;
13222;SDS011;6676;45.192;5.722;2023-05-10T03:55:15;0.53;;;0.30;;
13222;SDS011;6676;45.192;5.722;2023-05-10T03:58:10;0.82;;;0.30;;
13222;SDS011;6676;45.192;5.722;2023-05-10T04:01:04;1.35;;;0.45;;
13222;SDS011;6676;45.192;5.722;2023-05-10T04:03:55;0.37;;;0.30;;
13222;SDS011;6676;45.192;5.722;2023-05-10T04:06:47;1.40;;;0.47;;
13222;SDS011;6676;45.192;5.722;2023-05-10T04:09:39;0.45;;;0.35;;
13222;SDS011;6676;45.192;5.722;2023-05-10T04:12:31;4.00;;;0.47;;
13222;SDS011;6676;45.192;5.722;2023-05-10T04:15:23;0.47;;;0.47;;
13222;SDS011;6676;45.192;5.722;2023-05-10T04:18:14;1.70;;;0.40;;
13222;SDS011;6676;45.192;5.722;2023-05-10T04:21:11;0.70;;;0.35;;
13222;SDS011;6676;45.192;5.722;2023-05-10T04:24:03;0.45;;;0.33;;
13222;SDS011;6676;45.192;5.722;2023-05-10T04:26:55;0.10;;;0.10;;
13222;SDS011;6676;45.192;5.722;2023-05-10T04:29:46;0.42;;;0.30;;
13222;SDS011;6676;45.192;5.722;2023-05-10T04:32:38;0.55;;;0.20;;
13222;SDS011;6676;45.192;5.722;2023-05-10T04:35:29;2.75;;;0.17;;
13222;SDS011;6676;45.192;5.722;2023-05-10T04:38:21;0.68;;;0.20;;
13222;SDS011;6676;45.192;5.722;2023-05-10T04:41:13;0.42;;;0.30;;
13222;SDS011;6676;45.192;5.722;2023-05-10T04:44:04;1.37;;;0.50;;
13222;SDS011;6676;45.192;5.722;2023-05-10T04:46:55;7.67;;;0.40;;
13222;SDS011;6676;45.192;5.722;2023-05-10T04:49:47;0.55;;;0.30;;
13222;SDS011;6676;45.192;5.722;2023-05-10T04:52:38;2.87;;;0.33;;
13222;SDS011;6676;45.192;5.722;2023-05-10T04:55:30;0.85;;;0.40;;
13222;SDS011;6676;45.192;5.722;2023-05-10T04:58:21;0.55;;;0.40;;
13222;SDS011;6676;45.192;5.722;2023-05-10T05:01:13;4.83;;;0.57;;
13222;SDS011;6676;45.192;5.722;2023-05-10T05:04:04;2.08;;;0.40;;
13222;SDS011;6676;45.192;5.722;2023-05-10T05:06:56;3.58;;;0.60;;
13222;SDS011;6676;45.192;5.722;2023-05-10T05:09:47;0.80;;;0.40;;
13222;SDS011;6676;45.192;5.722;2023-05-10T05:12:39;1.80;;;0.37;;
13222;SDS011;6676;45.192;5.722;2023-05-10T05:15:31;2.33;;;0.50;;
13222;SDS011;6676;45.192;5.722;2023-05-10T05:18:23;0.65;;;0.45;;
13222;SDS011;6676;45.192;5.722;2023-05-10T05:21:14;3.37;;;0.50;;
13222;SDS011;6676;45.192;5.722;2023-05-10T05:24:07;1.70;;;0.60;;
13222;SDS011;6676;45.192;5.722;2023-05-10T05:26:58;0.90;;;0.72;;
13222;SDS011;6676;45.192;5.722;2023-05-10T05:29:50;1.37;;;0.47;;
13222;SDS011;6676;45.192;5.722;2023-05-10T05:32:43;1.98;;;0.50;;
13222;SDS011;6676;45.192;5.722;2023-05-10T05:35:35;1.62;;;0.57;;
13222;SDS011;6676;45.192;5.722;2023-05-10T05:38:27;1.55;;;0.53;;
13222;SDS011;6676;45.192;5.722;2023-05-10T05:41:19;0.85;;;0.50;;
13222;SDS011;6676;45.192;5.722;2023-05-10T05:44:11;2.52;;;0.70;;
13222;SDS011;6676;45.192;5.722;2023-05-10T05:47:03;0.65;;;0.45;;
13222;SDS011;6676;45.192;5.722;2023-05-10T05:49:54;1.10;;;0.35;;
13222;SDS011;6676;45.192;5.722;2023-05-10T05:52:46;1.30;;;0.45;;
13222;SDS011;6676;45.192;5.722;2023-05-10T05:55:37;2.70;;;0.65;;
13222;SDS011;6676;45.192;5.722;2023-05-10T05:58:29;1.55;;;0.50;;
13222;SDS011;6676;45.192;5.722;2023-05-10T06:01:21;1.95;;;0.33;;
13222;SDS011;6676;45.192;5.722;2023-05-10T06:04:12;1.05;;;0.45;;
13222;SDS011;6676;45.192;5.722;2023-05-10T06:07:04;2.52;;;0.78;;
13222;SDS011;6676;45.192;5.722;2023-05-10T06:09:56;1.55;;;0.62;;
13222;SDS011;6676;45.192;5.722;2023-05-10T06:12:48;3.10;;;0.50;;
13222;SDS011;6676;45.192;5.722;2023-05-10T06:15:39;1.75;;;0.53;;
13222;SDS011;6676;45.192;5.722;2023-05-10T06:18:31;0.80;;;0.30;;
13222;SDS011;6676;45.192;5.722;2023-05-10T06:21:23;2.12;;;0.50;;
13222;SDS011;6676;45.192;5.722;2023-05-10T06:24:15;2.42;;;0.40;;
13222;SDS011;6676;45.192;5.722;2023-05-10T06:27:06;1.75;;;0.50;;
13222;SDS011;6676;45.192;5.722;2023-05-10T06:29:58;2.27;;;0.60;;
13222;SDS011;6676;45.192;5.722;2023-05-10T06:32:51;1.98;;;0.80;;
13222;SDS011;6676;45.192;5.722;2023-05-10T06:35:43;1.42;;;0.50;;
13222;SDS011;6676;45.192;5.722;2023-05-10T06:38:34;3.05;;;0.50;;
13222;SDS011;6676;45.192;5.722;2023-05-10T06:41:26;1.72;;;0.40;;
13222;SDS011;6676;45.192;5.722;2023-05-10T06:44:18;0.72;;;0.30;;
13222;SDS011;6676;45.192;5.722;2023-05-10T06:47:09;3.22;;;0.60;;
13222;SDS011;6676;45.192;5.722;2023-05-10T06:50:01;2.62;;;0.47;;
13222;SDS011;6676;45.192;5.722;2023-05-10T06:52:52;1.67;;;0.53;;
13222;SDS011;6676;45.192;5.722;2023-05-10T06:55:44;2.10;;;0.60;;
13222;SDS011;6676;45.192;5.722;2023-05-10T06:58:36;4.42;;;0.75;;
13222;SDS011;6676;45.192;5.722;2023-05-10T07:01:27;2.98;;;0.82;;
13222;SDS011;6676;45.192;5.722;2023-05-10T07:04:19;1.85;;;0.70;;
13222;SDS011;6676;45.192;5.722;2023-05-10T07:07:10;8.13;;;1.05;;
13222;SDS011;6676;45.192;5.722;2023-05-10T07:10:02;3.17;;;0.93;;
13222;SDS011;6676;45.192;5.722;2023-05-10T07:12:54;1.15;;;0.45;;
13222;SDS011;6676;45.192;5.722;2023-05-10T07:15:45;1.12;;;0.40;;
13222;SDS011;6676;45.192;5.722;2023-05-10T07:18:37;4.50;;;0.85;;
13222;SDS011;6676;45.192;5.722;2023-05-10T07:21:28;4.47;;;0.80;;
13222;SDS011;6676;45.192;5.722;2023-05-10T07:24:19;2.72;;;0.70;;
13222;SDS011;6676;45.192;5.722;2023-05-10T07:27:11;3.83;;;1.15;;
13222;SDS011;6676;45.192;5.722;2023-05-10T07:30:04;2.22;;;0.80;;
13222;SDS011;6676;45.192;5.722;2023-05-10T07:32:57;2.33;;;0.53;;
13222;SDS011;6676;45.192;5.722;2023-05-10T07:35:49;4.65;;;1.05;;
13222;SDS011;6676;45.192;5.722;2023-05-10T07:38:40;4.22;;;1.15;;
13222;SDS011;6676;45.192;5.722;2023-05-10T07:41:31;4.05;;;0.80;;
13222;SDS011;6676;45.192;5.722;2023-05-10T07:44:23;2.35;;;0.60;;
13222;SDS011;6676;45.192;5.722;2023-05-10T07:47:15;4.28;;;0.70;;
13222;SDS011;6676;45.192;5.722;2023-05-10T07:50:07;4.22;;;1.07;;
13222;SDS011;6676;45.192;5.722;2023-05-10T07:52:59;3.45;;;0.70;;
13222;SDS011;6676;45.192;5.722;2023-05-10T07:55:51;3.33;;;0.70;;
13222;SDS011;6676;45.192;5.722;2023-05-10T07:58:44;3.98;;;0.90;;
13222;SDS011;6676;45.192;5.722;2023-05-10T08:01:38;2.92;;;0.88;;
13222;SDS011;6676;45.192;5.722;2023-05-10T08:04:33;2.90;;;0.60;;
13222;SDS011;6676;45.192;5.722;2023-05-10T08:07:27;3.30;;;0.65;;
13222;SDS011;6676;45.192;5.722;2023-05-10T08:10:21;2.90;;;0.60;;
13222;SDS011;6676;45.192;5.722;2023-05-10T08:13:14;2.65;;;0.93;;
13222;SDS011;6676;45.192;5.722;2023-05-10T08:16:11;2.95;;;1.05;;
13222;SDS011;6676;45.192;5.722;2023-05-10T08:19:05;3.58;;;1.00;;
13222;SDS011;6676;45.192;5.722;2023-05-10T08:21:58;2.55;;;1.10;;
13222;SDS011;6676;45.192;5.722;2023-05-10T08:24:51;3.85;;;0.80;;
13222;SDS011;6676;45.192;5.722;2023-05-10T08:27:45;4.10;;;0.70;;
13222;SDS011;6676;45.192;5.722;2023-05-10T08:30:37;3.75;;;0.82;;
13222;SDS011;6676;45.192;5.722;2023-05-10T08:33:32;2.30;;;0.80;;
13222;SDS011;6676;45.192;5.722;2023-05-10T08:36:28;4.28;;;0.98;;
13222;SDS011;6676;45.192;5.722;2023-05-10T08:39:21;3.10;;;1.00;;
13222;SDS011;6676;45.192;5.722;2023-05-10T08:42:19;3.37;;;1.07;;
13222;SDS011;6676;45.192;5.722;2023-05-10T08:45:14;4.78;;;0.82;;
13222;SDS011;6676;45.192;5.722;2023-05-10T08:48:09;4.35;;;1.02;;
13222;SDS011;6676;45.192;5.722;2023-05-10T08:51:02;6.83;;;1.10;;
13222;SDS011;6676;45.192;5.722;2023-05-10T08:53:57;5.80;;;0.82;;
13222;SDS011;6676;45.192;5.722;2023-05-10T08:56:53;2.33;;;0.65;;
13222;SDS011;6676;45.192;5.722;2023-05-10T08:59:51;3.35;;;0.70;;
13222;SDS011;6676;45.192;5.722;2023-05-10T09:02:44;5.50;;;1.20;;
13222;SDS011;6676;45.192;5.722;2023-05-10T09:05:40;3.85;;;0.80;;
13222;SDS011;6676;45.192;5.722;2023-05-10T09:08:35;3.42;;;0.80;;
13222;SDS011;6676;45.192;5.722;2023-05-10T09:11:28;2.65;;;0.80;;
13222;SDS011;6676;45.192;5.722;2023-05-10T09:14:21;4.35;;;1.10;;
13222;SDS011;6676;45.192;5.722;2023-05-10T09:17:16;2.92;;;0.90;;
13222;SDS011;6676;45.192;5.722;2023-05-10T09:20:10;2.08;;;0.60;;
13222;SDS011;6676;45.192;5.722;2023-05-10T09:23:05;4.10;;;0.70;;
13222;SDS011;6676;45.192;5.722;2023-05-10T09:26:03;4.60;;;0.85;;
13222;SDS011;6676;45.192;5.722;2023-05-10T09:28:59;4.25;;;1.32;;
13222;SDS011;6676;45.192;5.722;2023-05-10T09:31:56;2.42;;;0.80;;
13222;SDS011;6676;45.192;5.722;2023-05-10T09:34:49;1.95;;;0.70;;
13222;SDS011;6676;45.192;5.722;2023-05-10T09:37:52;2.90;;;0.82;;
13222;SDS011;6676;45.192;5.722;2023-05-10T09:40:51;3.45;;;0.90;;
13222;SDS011;6676;45.192;5.722;2023-05-10T09:43:45;3.30;;;0.60;;
13222;SDS011;6676;45.192;5.722;2023-05-10T09:46:40;3.55;;;0.80;;
13222;SDS011;6676;45.192;5.722;2023-05-10T09:49:36;2.85;;;0.93;;
13222;SDS011;6676;45.192;5.722;2023-05-10T09:52:30;3.08;;;0.70;;
13222;SDS011;6676;45.192;5.722;2023-05-10T09:55:27;4.12;;;0.80;;
13222;SDS011;6676;45.192;5.722;2023-05-10T09:58:30;4.70;;;0.72;;
13222;SDS011;6676;45.192;5.722;2023-05-10T10:01:26;5.15;;;0.80;;
13222;SDS011;6676;45.192;5.722;2023-05-10T10:04:23;3.80;;;0.70;;
13222;SDS011;6676;45.192;5.722;2023-05-10T10:07:17;4.45;;;0.82;;
13222;SDS011;6676;45.192;5.722;2023-05-10T10:10:14;2.75;;;0.60;;
13222;SDS011;6676;45.192;5.722;2023-05-10T10:13:10;3.58;;;0.80;;
13222;SDS011;6676;45.192;5.722;2023-05-10T10:16:07;3.33;;;1.17;;
13222;SDS011;6676;45.192;5.722;2023-05-10T10:19:00;2.55;;;0.70;;
13222;SDS011;6676;45.192;5.722;2023-05-10T10:21:52;4.15;;;0.80;;
13222;SDS011;6676;45.192;5.722;2023-05-10T10:24:44;2.72;;;0.82;;
13222;SDS011;6676;45.192;5.722;2023-05-10T10:27:43;2.30;;;0.70;;
13222;SDS011;6676;45.192;5.722;2023-05-10T10:30:37;1.50;;;0.55;;
13222;SDS011;6676;45.192;5.722;2023-05-10T10:33:47;3.25;;;0.80;;
13222;SDS011;6676;45.192;5.722;2023-05-10T10:36:42;2.10;;;0.70;;
13222;SDS011;6676;45.192;5.722;2023-05-10T10:39:35;1.77;;;0.50;;
13222;SDS011;6676;45.192;5.722;2023-05-10T10:42:47;1.62;;;0.53;;
13222;SDS011;6676;45.192;5.722;2023-05-10T10:45:39;2.70;;;0.65;;
13222;SDS011;6676;45.192;5.722;2023-05-10T10:48:35;1.25;;;0.40;;
13222;SDS011;6676;45.192;5.722;2023-05-10T10:51:29;2.25;;;0.70;;
13222;SDS011;6676;45.192;5.722;2023-05-10T10:54:28;2.75;;;0.53;;
13222;SDS011;6676;45.192;5.722;2023-05-10T10:57:24;1.65;;;0.47;;
13222;SDS011;6676;45.192;5.722;2023-05-10T11:00:28;2.47;;;0.60;;
13222;SDS011;6676;45.192;5.722;2023-05-10T11:03:23;2.05;;;0.30;;
13222;SDS011;6676;45.192;5.722;2023-05-10T11:06:17;2.15;;;0.40;;
13222;SDS011;6676;45.192;5.722;2023-05-10T11:09:20;2.70;;;0.55;;
13222;SDS011;6676;45.192;5.722;2023-05-10T11:12:15;2.08;;;0.55;;
13222;SDS011;6676;45.192;5.722;2023-05-10T11:15:09;2.50;;;0.70;;
13222;SDS011;6676;45.192;5.722;2023-05-10T11:18:17;5.92;;;0.88;;
13222;SDS011;6676;45.192;5.722;2023-05-10T11:21:12;1.67;;;0.60;;
13222;SDS011;6676;45.192;5.722;2023-05-10T11:24:13;1.27;;;0.40;;
13222;SDS011;6676;45.192;5.722;2023-05-10T11:27:07;4.12;;;0.70;;
13222;SDS011;6676;45.192;5.722;2023-05-10T11:30:05;3.25;;;0.93;;
13222;SDS011;6676;45.192;5.722;2023-05-10T11:32:59;2.37;;;0.60;;
13222;SDS011;6676;45.192;5.722;2023-05-10T11:36:06;2.15;;;0.57;;
13222;SDS011;6676;45.192;5.722;2023-05-10T11:39:02;3.08;;;0.88;;
13222;SDS011;6676;45.192;5.722;2023-05-10T11:42:00;2.98;;;0.72;;
13222;SDS011;6676;45.192;5.722;2023-05-10T11:44:52;2.10;;;0.70;;
13222;SDS011;6676;45.192;5.722;2023-05-10T11:47:44;1.87;;;0.70;;
13222;SDS011;6676;45.192;5.722;2023-05-10T11:50:40;3.47;;;0.70;;
13222;SDS011;6676;45.192;5.722;2023-05-10T11:53:35;3.22;;;0.72;;
13222;SDS011;6676;45.192;5.722;2023-05-10T11:56:32;1.37;;;0.40;;
13222;SDS011;6676;45.192;5.722;2023-05-10T11:59:25;0.90;;;0.30;;
13222;SDS011;6676;45.192;5.722;2023-05-10T12:02:22;1.47;;;0.62;;
13222;SDS011;6676;45.192;5.722;2023-05-10T12:05:16;1.15;;;0.50;;
13222;SDS011;6676;45.192;5.722;2023-05-10T12:08:13;1.42;;;0.50;;
13222;SDS011;6676;45.192;5.722;2023-05-10T12:11:07;2.15;;;1.00;;
13222;SDS011;6676;45.192;5.722;2023-05-10T12:14:03;0.70;;;0.30;;
13222;SDS011;6676;45.192;5.722;2023-05-10T12:16:57;1.42;;;0.40;;
13222;SDS011;6676;45.192;5.722;2023-05-10T12:19:53;1.75;;;0.50;;
13222;SDS011;6676;45.192;5.722;2023-05-10T12:22:51;1.72;;;0.45;;
13222;SDS011;6676;45.192;5.722;2023-05-10T12:25:48;2.12;;;0.57;;
13222;SDS011;6676;45.192;5.722;2023-05-10T12:28:43;3.00;;;0.57;;
13222;SDS011;6676;45.192;5.722;2023-05-10T12:31:46;1.45;;;0.45;;
13222;SDS011;6676;45.192;5.722;2023-05-10T12:34:42;2.47;;;0.40;;
13222;SDS011;6676;45.192;5.722;2023-05-10T12:37:36;1.92;;;0.57;;
13222;SDS011;6676;45.192;5.722;2023-05-10T12:40:31;2.02;;;0.40;;
13222;SDS011;6676;45.192;5.722;2023-05-10T12:43:28;3.45;;;0.40;;
13222;SDS011;6676;45.192;5.722;2023-05-10T12:46:20;3.05;;;0.50;;
13222;SDS011;6676;45.192;5.722;2023-05-10T12:49:16;1.92;;;0.50;;
13222;SDS011;6676;45.192;5.722;2023-05-10T12:52:08;1.20;;;0.30;;
13222;SDS011;6676;45.192;5.722;2023-05-10T12:55:03;1.12;;;0.35;;
13222;SDS011;6676;45.192;5.722;2023-05-10T12:57:56;2.17;;;0.47;;
13222;SDS011;6676;45.192;5.722;2023-05-10T13:00:50;1.00;;;0.50;;
13222;SDS011;6676;45.192;5.722;2023-05-10T13:03:45;2.80;;;0.45;;
13222;SDS011;6676;45.192;5.722;2023-05-10T13:06:38;1.67;;;0.50;;
13222;SDS011;6676;45.192;5.722;2023-05-10T13:09:33;1.85;;;0.55;;
13222;SDS011;6676;45.192;5.722;2023-05-10T13:12:26;0.80;;;0.40;;
13222;SDS011;6676;45.192;5.722;2023-05-10T13:15:24;2.77;;;0.60;;
13222;SDS011;6676;45.192;5.722;2023-05-10T13:18:16;2.95;;;0.40;;
13222;SDS011;6676;45.192;5.722;2023-05-10T13:21:11;3.40;;;0.70;;
13222;SDS011;6676;45.192;5.722;2023-05-10T13:24:05;3.22;;;0.45;;
13222;SDS011;6676;45.192;5.722;2023-05-10T13:26:57;1.17;;;0.30;;
13222;SDS011;6676;45.192;5.722;2023-05-10T13:29:50;0.70;;;0.40;;
13222;SDS011;6676;45.192;5.722;2023-05-10T13:32:48;1.62;;;0.40;;
13222;SDS011;6676;45.192;5.722;2023-05-10T13:35:41;2.62;;;0.20;;
13222;SDS011;6676;45.192;5.722;2023-05-10T13:38:43;1.12;;;0.23;;
13222;SDS011;6676;45.192;5.722;2023-05-10T13:41:35;2.40;;;0.40;;
13222;SDS011;6676;45.192;5.722;2023-05-10T13:44:29;2.25;;;0.65;;
13222;SDS011;6676;45.192;5.722;2023-05-10T13:47:24;4.40;;;0.90;;
13222;SDS011;6676;45.192;5.722;2023-05-10T13:50:22;0.80;;;0.30;;
13222;SDS011;6676;45.192;5.722;2023-05-10T13:53:17;1.62;;;0.60;;
13222;SDS011;6676;45.192;5.722;2023-05-10T13:56:11;2.02;;;0.70;;
13222;SDS011;6676;45.192;5.722;2023-05-10T13:59:07;2.35;;;0.60;;
13222;SDS011;6676;45.192;5.722;2023-05-10T14:02:02;2.17;;;0.50;;
13222;SDS011;6676;45.192;5.722;2023-05-10T14:04:56;2.95;;;0.60;;
13222;SDS011;6676;45.192;5.722;2023-05-10T14:07:50;1.27;;;0.50;;
13222;SDS011;6676;45.192;5.722;2023-05-10T14:10:45;2.83;;;0.70;;
13222;SDS011;6676;45.192;5.722;2023-05-10T14:13:40;0.70;;;0.50;;
13222;SDS011;6676;45.192;5.722;2023-05-10T14:16:35;2.05;;;0.40;;
13222;SDS011;6676;45.192;5.722;2023-05-10T14:19:27;1.85;;;0.40;;
13222;SDS011;6676;45.192;5.722;2023-05-10T14:22:24;1.62;;;0.50;;
13222;SDS011;6676;45.192;5.722;2023-05-10T14:25:17;1.90;;;0.55;;
13222;SDS011;6676;45.192;5.722;2023-05-10T14:28:14;0.80;;;0.30;;
13222;SDS011;6676;45.192;5.722;2023-05-10T14:31:07;2.20;;;0.35;;
13222;SDS011;6676;45.192;5.722;2023-05-10T14:34:02;2.17;;;0.65;;
13222;SDS011;6676;45.192;5.722;2023-05-10T14:36:55;0.95;;;0.47;;
13222;SDS011;6676;45.192;5.722;2023-05-10T14:39:46;2.55;;;0.47;;
13222;SDS011;6676;45.192;5.722;2023-05-10T14:42:45;1.90;;;0.50;;
13222;SDS011;6676;45.192;5.722;2023-05-10T14:45:37;3.20;;;0.40;;
13222;SDS011;6676;45.192;5.722;2023-05-10T14:48:30;1.37;;;0.40;;
13222;SDS011;6676;45.192;5.722;2023-05-10T14:51:29;2.40;;;0.42;;
13222;SDS011;6676;45.192;5.722;2023-05-10T14:54:23;1.55;;;0.50;;
13222;SDS011;6676;45.192;5.722;2023-05-10T14:57:19;2.05;;;0.60;;
13222;SDS011;6676;45.192;5.722;2023-05-10T15:00:20;2.30;;;0.72;;
13222;SDS011;6676;45.192;5.722;2023-05-10T15:03:26;1.12;;;0.40;;
13222;SDS011;6676;45.192;5.722;2023-05-10T15:06:23;1.22;;;0.40;;
13222;SDS011;6676;45.192;5.722;2023-05-10T15:09:21;2.90;;;0.57;;
13222;SDS011;6676;45.192;5.722;2023-05-10T15:12:16;3.10;;;0.50;;
13222;SDS011;6676;45.192;5.722;2023-05-10T15:15:10;2.92;;;0.65;;
13222;SDS011;6676;45.192;5.722;2023-05-10T15:18:05;2.58;;;0.65;;
13222;SDS011;6676;45.192;5.722;2023-05-10T15:23:54;3.50;;;0.70;;
13222;SDS011;6676;45.192;5.722;2023-05-10T15:26:52;2.05;;;0.65;;
13222;SDS011;6676;45.192;5.722;2023-05-10T15:29:48;2.58;;;0.75;;
13222;SDS011;6676;45.192;5.722;2023-05-10T15:32:41;1.30;;;0.50;;
13222;SDS011;6676;45.192;5.722;2023-05-10T15:35:35;4.08;;;0.70;;
13222;SDS011;6676;45.192;5.722;2023-05-10T15:38:28;1.45;;;0.20;;
13222;SDS011;6676;45.192;5.722;2023-05-10T15:41:21;0.95;;;0.35;;
13222;SDS011;6676;45.192;5.722;2023-05-10T15:44:14;1.45;;;0.40;;
13222;SDS011;6676;45.192;5.722;2023-05-10T15:47:08;2.15;;;0.60;;
13222;SDS011;6676;45.192;5.722;2023-05-10T15:49:49;2.85;;;0.70;;
13222;SDS011;6676;45.192;5.722;2023-05-10T15:52:40;4.05;;;0.60;;
13222;SDS011;6676;45.192;5.722;2023-05-10T15:55:32;2.05;;;0.60;;
13222;SDS011;6676;45.192;5.722;2023-05-10T15:58:23;1.20;;;0.33;;
13222;SDS011;6676;45.192;5.722;2023-05-10T16:01:14;2.60;;;0.47;;
13222;SDS011;6676;45.192;5.722;2023-05-10T16:04:06;1.42;;;0.50;;
13222;SDS011;6676;45.192;5.722;2023-05-10T16:06:57;2.25;;;0.70;;
13222;SDS011;6676;45.192;5.722;2023-05-10T16:09:49;1.40;;;0.50;;
13222;SDS011;6676;45.192;5.722;2023-05-10T16:12:30;2.50;;;0.60;;
13222;SDS011;6676;45.192;5.722;2023-05-10T16:15:21;1.75;;;0.57;;
13222;SDS011;6676;45.192;5.722;2023-05-10T16:18:12;2.00;;;0.50;;
13222;SDS011;6676;45.192;5.722;2023-05-10T16:21:05;2.22;;;0.72;;
13222;SDS011;6676;45.192;5.722;2023-05-10T16:23:57;1.00;;;0.40;;
13222;SDS011;6676;45.192;5.722;2023-05-10T16:26:48;3.08;;;0.60;;
13222;SDS011;6676;45.192;5.722;2023-05-10T16:29:40;2.60;;;0.50;;
13222;SDS011;6676;45.192;5.722;2023-05-10T16:32:31;3.90;;;0.90;;
13222;SDS011;6676;45.192;5.722;2023-05-10T16:35:23;2.85;;;0.62;;
13222;SDS011;6676;45.192;5.722;2023-05-10T16:38:15;1.72;;;0.50;;
13222;SDS011;6676;45.192;5.722;2023-05-10T16:41:06;2.37;;;0.60;;
13222;SDS011;6676;45.192;5.722;2023-05-10T16:43:57;1.90;;;0.60;;
13222;SDS011;6676;45.192;5.722;2023-05-10T16:46:49;1.82;;;0.50;;
13222;SDS011;6676;45.192;5.722;2023-05-10T16:49:40;3.80;;;0.50;;
13222;SDS011;6676;45.192;5.722;2023-05-10T16:52:32;2.33;;;0.60;;
13222;SDS011;6676;45.192;5.722;2023-05-10T16:55:24;2.02;;;0.62;;
13222;SDS011;6676;45.192;5.722;2023-05-10T16:58:16;2.52;;;0.60;;
13222;SDS011;6676;45.192;5.722;2023-05-10T17:01:07;2.35;;;0.80;;
13222;SDS011;6676;45.192;5.722;2023-05-10T17:03:59;2.22;;;0.75;;
13222;SDS011;6676;45.192;5.722;2023-05-10T17:06:52;3.22;;;0.80;;
13222;SDS011;6676;45.192;5.722;2023-05-10T17:09:43;2.62;;;0.72;;
13222;SDS011;6676;45.192;5.722;2023-05-10T17:12:35;4.90;;;0.82;;
13222;SDS011;6676;45.192;5.722;2023-05-10T17:15:26;2.98;;;0.75;;
13222;SDS011;6676;45.192;5.722;2023-05-10T17:18:17;2.12;;;0.50;;
13222;SDS011;6676;45.192;5.722;2023-05-10T17:21:09;3.00;;;0.75;;
13222;SDS011;6676;45.192;5.722;2023-05-10T17:24:01;2.20;;;0.72;;
13222;SDS011;6676;45.192;5.722;2023-05-10T17:26:53;2.12;;;0.70;;
13222;SDS011;6676;45.192;5.722;2023-05-10T17:29:44;3.80;;;0.80;;
13222;SDS011;6676;45.192;5.722;2023-05-10T17:32:36;3.52;;;1.10;;
13222;SDS011;6676;45.192;5.722;2023-05-10T17:35:28;3.15;;;0.70;;
13222;SDS011;6676;45.192;5.722;2023-05-10T17:38:20;5.87;;;0.80;;
13222;SDS011;6676;45.192;5.722;2023-05-10T17:41:12;3.92;;;0.70;;
13222;SDS011;6676;45.192;5.722;2023-05-10T17:44:04;2.80;;;0.62;;
13222;SDS011;6676;45.192;5.722;2023-05-10T17:46:56;1.45;;;0.60;;
13222;SDS011;6676;45.192;5.722;2023-05-10T17:49:47;5.28;;;0.60;;
13222;SDS011;6676;45.192;5.722;2023-05-10T17:52:39;4.15;;;0.95;;